createdAt,value
2023-01-19T00:00:54.977Z,0.31
2023-01-19T00:03:21.588Z,0.32
2023-01-19T00:05:48.383Z,0.37
2023-01-19T00:08:15.118Z,0.39
2023-01-19T00:10:46.828Z,0.38
2023-01-19T00:13:14.880Z,0.41
2023-01-19T00:15:41.468Z,0.35
2023-01-19T00:18:09.853Z,0.25
2023-01-19T00:20:37.444Z,0.29
2023-01-19T00:23:04.928Z,0.29
2023-01-19T00:25:34.100Z,0.30
2023-01-19T00:28:01.873Z,0.22
2023-01-19T00:30:28.779Z,0.26
2023-01-19T00:32:55.515Z,0.30
2023-01-19T00:35:22.879Z,0.35
2023-01-19T00:37:49.449Z,0.29
2023-01-19T00:40:16.354Z,0.25
2023-01-19T00:42:45.876Z,0.11
2023-01-19T00:45:15.263Z,0.13
2023-01-19T00:47:42.440Z,0.07
2023-01-19T00:50:11.841Z,-0.02
2023-01-19T00:52:41.938Z,0.10
2023-01-19T00:55:10.301Z,0.02
2023-01-19T00:57:37.340Z,0.07
2023-01-19T01:00:06.374Z,0.10
2023-01-19T01:02:33.559Z,0.06
2023-01-19T01:05:02.873Z,0.04
2023-01-19T01:07:30.700Z,0.05
2023-01-19T01:09:57.543Z,0.07
2023-01-19T01:12:24.435Z,0.14
2023-01-19T01:14:50.940Z,0.25
2023-01-19T01:17:17.624Z,0.13
2023-01-19T01:19:44.124Z,0.25
2023-01-19T01:22:10.806Z,0.24
2023-01-19T01:24:37.315Z,0.24
2023-01-19T01:27:03.938Z,0.15
2023-01-19T01:29:30.507Z,0.23
2023-01-19T01:31:57.092Z,0.15
2023-01-19T01:34:23.619Z,0.10
2023-01-19T01:36:50.122Z,0.12
2023-01-19T01:39:16.539Z,0.12
2023-01-19T01:41:42.911Z,0.15
2023-01-19T01:44:50.301Z,0.09
2023-01-19T01:47:40.312Z,0.13
2023-01-19T01:50:16.428Z,0.11
2023-01-19T01:53:07.060Z,0.15
2023-01-19T01:55:38.347Z,0.12
2023-01-19T01:58:08.497Z,0.05
2023-01-19T02:00:53.886Z,0.05
2023-01-19T02:03:23.333Z,0.11
2023-01-19T02:05:50.608Z,0.18
2023-01-19T02:08:43.691Z,0.22
2023-01-19T02:11:29.874Z,-0.01
2023-01-19T02:13:56.410Z,0.14
2023-01-19T02:16:23.113Z,0.14
2023-01-19T02:18:49.659Z,-0.05
2023-01-19T02:21:24.384Z,-0.07
2023-01-19T02:23:52.392Z,-0.02
2023-01-19T02:26:41.328Z,0.07
2023-01-19T02:29:11.565Z,0.07
2023-01-19T02:31:39.581Z,0.09
2023-01-19T02:34:09.547Z,-0.01
2023-01-19T02:36:41.139Z,0.04
2023-01-19T02:39:09.591Z,0.00
2023-01-19T02:41:42.392Z,0.05
2023-01-19T02:44:10.188Z,-0.08
2023-01-19T02:46:37.824Z,-0.02
2023-01-19T02:49:04.367Z,-0.04
2023-01-19T02:51:30.948Z,-0.14
2023-01-19T02:54:20.316Z,0.06
2023-01-19T02:57:39.880Z,-0.02
2023-01-19T03:00:09.878Z,-0.05
2023-01-19T03:02:47.542Z,-0.09
2023-01-19T03:05:50.914Z,-0.14
2023-01-19T03:08:23.539Z,-0.15
2023-01-19T03:11:11.112Z,-0.14
2023-01-19T03:13:57.148Z,-0.23
2023-01-19T03:16:44.899Z,-0.22
2023-01-19T03:19:23.195Z,-0.23
2023-01-19T03:21:55.276Z,-0.22
2023-01-19T03:24:25.169Z,-0.24
2023-01-19T03:27:02.858Z,-0.21
2023-01-19T03:29:35.049Z,-0.24
2023-01-19T03:32:06.363Z,-0.31
2023-01-19T03:34:35.193Z,-0.32
2023-01-19T03:37:04.827Z,-0.40
2023-01-19T03:39:31.876Z,-0.52
2023-01-19T03:42:11.621Z,-0.65
2023-01-19T03:44:40.437Z,-0.64
2023-01-19T03:47:10.263Z,-0.67
2023-01-19T03:49:37.876Z,-0.66
2023-01-19T03:52:04.940Z,-0.64
2023-01-19T03:54:32.082Z,-0.74
2023-01-19T03:56:58.422Z,-0.75
2023-01-19T03:59:24.925Z,-0.69
2023-01-19T04:01:51.509Z,-0.75
2023-01-19T04:04:18.063Z,-0.84
2023-01-19T04:06:44.644Z,-0.88
2023-01-19T04:09:11.510Z,-0.94
2023-01-19T04:11:37.922Z,-0.82
2023-01-19T04:14:04.492Z,-0.94
2023-01-19T04:16:31.067Z,-0.89
2023-01-19T04:18:57.601Z,-0.98
2023-01-19T04:21:24.268Z,-1.02
2023-01-19T04:23:50.892Z,-1.01
2023-01-19T04:26:17.403Z,-1.04
2023-01-19T04:28:43.954Z,-1.09
2023-01-19T04:31:10.770Z,-1.11
2023-01-19T04:33:37.318Z,-1.10
2023-01-19T04:36:04.157Z,-1.18
2023-01-19T04:38:30.755Z,-1.24
2023-01-19T04:40:57.297Z,-1.29
2023-01-19T04:43:24.268Z,-1.32
2023-01-19T04:45:51.603Z,-1.30
2023-01-19T04:48:18.901Z,-1.31
2023-01-19T04:50:46.149Z,-1.33
2023-01-19T04:53:13.842Z,-1.38
2023-01-19T04:55:40.395Z,-1.52
2023-01-19T04:58:06.945Z,-1.57
2023-01-19T05:00:33.714Z,-1.59
2023-01-19T05:03:01.646Z,-1.65
2023-01-19T05:05:28.405Z,-1.69
2023-01-19T05:07:55.007Z,-1.70
2023-01-19T05:10:21.896Z,-1.73
2023-01-19T05:12:48.388Z,-1.84
2023-01-19T05:15:14.845Z,-1.81
2023-01-19T05:17:41.911Z,-1.84
2023-01-19T05:20:11.874Z,-1.86
2023-01-19T05:22:39.561Z,-1.89
2023-01-19T05:25:09.548Z,-1.89
2023-01-19T05:27:38.769Z,-1.88
2023-01-19T05:30:06.175Z,-1.90
2023-01-19T05:32:32.910Z,-1.97
2023-01-19T05:34:59.563Z,-1.90
2023-01-19T05:37:26.191Z,-1.90
2023-01-19T05:39:53.138Z,-1.94
2023-01-19T05:42:19.783Z,-1.95
2023-01-19T05:44:46.306Z,-1.96
2023-01-19T05:47:13.005Z,-1.94
2023-01-19T05:49:39.642Z,-1.96
2023-01-19T05:52:06.356Z,-2.03
2023-01-19T05:54:33.027Z,-2.04
2023-01-19T05:56:59.577Z,-2.04
2023-01-19T05:59:26.409Z,-1.99
2023-01-19T06:01:53.760Z,-2.00
2023-01-19T06:04:20.681Z,-2.01
2023-01-19T06:06:48.176Z,-2.10
2023-01-19T06:09:14.703Z,-2.09
2023-01-19T06:11:41.151Z,-2.12
2023-01-19T06:14:10.377Z,-2.07
2023-01-19T06:16:37.001Z,-2.10
2023-01-19T06:19:03.555Z,-2.12
2023-01-19T06:21:30.057Z,-2.09
2023-01-19T06:23:56.560Z,-2.11
2023-01-19T06:26:23.316Z,-2.13
2023-01-19T06:28:51.941Z,-2.12
2023-01-19T06:31:18.870Z,-2.08
2023-01-19T06:33:47.143Z,-2.20
2023-01-19T06:36:13.760Z,-2.28
2023-01-19T06:38:40.428Z,-2.36
2023-01-19T06:41:06.979Z,-2.24
2023-01-19T06:43:33.474Z,-2.27
2023-01-19T06:46:03.911Z,-2.38
2023-01-19T06:48:30.497Z,-2.33
2023-01-19T06:50:58.760Z,-2.33
2023-01-19T06:53:27.932Z,-2.28
2023-01-19T06:56:02.088Z,-2.41
2023-01-19T06:58:30.406Z,-2.33
2023-01-19T07:01:04.561Z,-2.49
2023-01-19T07:03:32.121Z,-2.41
2023-01-19T07:06:02.206Z,-2.27
2023-01-19T07:08:30.089Z,-2.14
2023-01-19T07:11:25.392Z,-2.07
2023-01-19T07:13:57.092Z,-2.15
2023-01-19T07:16:23.626Z,-2.16
2023-01-19T07:18:50.349Z,-2.15
2023-01-19T07:21:17.394Z,-2.19
2023-01-19T07:23:44.125Z,-2.21
2023-01-19T07:26:10.813Z,-2.27
2023-01-19T07:28:38.823Z,-2.19
2023-01-19T07:31:05.630Z,-2.28
2023-01-19T07:33:32.368Z,-2.16
2023-01-19T07:35:58.766Z,-2.29
2023-01-19T07:38:25.386Z,-2.28
2023-01-19T07:40:51.939Z,-2.25
2023-01-19T07:43:18.477Z,-2.19
2023-01-19T07:45:45.659Z,-2.07
2023-01-19T07:48:12.225Z,-2.20
2023-01-19T07:50:38.626Z,-2.14
2023-01-19T07:53:09.186Z,-2.22
2023-01-19T07:55:35.618Z,-2.11
2023-01-19T07:58:05.173Z,-2.08
2023-01-19T08:00:31.775Z,-1.82
2023-01-19T08:03:02.495Z,-1.82
2023-01-19T08:05:29.465Z,-1.77
2023-01-19T08:08:00.530Z,-1.72
2023-01-19T08:10:28.395Z,-1.65
2023-01-19T08:12:56.016Z,-1.78
2023-01-19T08:15:24.715Z,-1.65
2023-01-19T08:17:56.772Z,-1.81
2023-01-19T08:20:23.285Z,-1.55
2023-01-19T08:22:49.981Z,-1.62
2023-01-19T08:25:16.874Z,-1.73
2023-01-19T08:27:43.367Z,-1.56
2023-01-19T08:30:10.646Z,-1.65
2023-01-19T08:32:37.345Z,-1.63
2023-01-19T08:35:04.030Z,-1.55
2023-01-19T08:37:31.295Z,-1.52
2023-01-19T08:39:58.687Z,-1.35
2023-01-19T08:42:25.057Z,-1.57
2023-01-19T08:44:58.186Z,-1.33
2023-01-19T08:47:25.007Z,-1.55
2023-01-19T08:49:51.603Z,-1.48
2023-01-19T08:52:17.941Z,-1.32
2023-01-19T08:54:44.430Z,-1.28
2023-01-19T08:57:10.759Z,-1.27
2023-01-19T08:59:38.357Z,-1.36
2023-01-19T09:02:04.740Z,-1.36
2023-01-19T09:04:33.072Z,-1.58
2023-01-19T09:06:59.579Z,-1.41
2023-01-19T09:09:26.094Z,-1.44
2023-01-19T09:11:54.158Z,-1.42
2023-01-19T09:14:20.935Z,-1.37
2023-01-19T09:16:47.661Z,-1.38
2023-01-19T09:19:14.243Z,-1.23
2023-01-19T09:21:41.431Z,-1.09
2023-01-19T09:24:09.011Z,-1.05
2023-01-19T09:26:36.534Z,-0.90
2023-01-19T09:29:03.242Z,-0.74
2023-01-19T09:31:30.211Z,-0.71
2023-01-19T09:33:56.822Z,-0.72
2023-01-19T09:36:23.156Z,-0.78
2023-01-19T09:38:49.800Z,-0.57
2023-01-19T09:41:21.301Z,-0.60
2023-01-19T09:43:59.104Z,-0.46
2023-01-19T09:46:33.763Z,-0.84
2023-01-19T09:49:05.176Z,-0.95
2023-01-19T09:51:41.060Z,-0.33
2023-01-19T09:54:36.636Z,-0.41
2023-01-19T09:57:05.072Z,-0.24
2023-01-19T09:59:33.629Z,-0.12
2023-01-19T10:02:13.552Z,-0.30
2023-01-19T10:05:11.385Z,-0.15
2023-01-19T10:08:15.518Z,-0.45
2023-01-19T10:10:47.899Z,-0.23
2023-01-19T10:13:14.348Z,-0.15
2023-01-19T10:15:55.912Z,0.23
2023-01-19T10:18:43.242Z,-0.04
2023-01-19T10:21:16.597Z,0.05
2023-01-19T10:23:46.279Z,0.37
2023-01-19T10:26:22.062Z,0.42
2023-01-19T10:28:51.396Z,0.45
2023-01-19T10:31:21.618Z,0.38
2023-01-19T10:33:53.089Z,0.19
2023-01-19T10:36:27.480Z,0.16
2023-01-19T10:38:54.324Z,0.27
2023-01-19T10:41:44.586Z,0.32
2023-01-19T10:44:12.191Z,0.31
2023-01-19T10:46:43.775Z,0.43
2023-01-19T10:49:24.727Z,0.52
2023-01-19T10:51:51.570Z,0.86
2023-01-19T10:54:18.999Z,0.78
2023-01-19T10:56:53.558Z,1.00
2023-01-19T10:59:38.079Z,0.80
2023-01-19T11:02:10.671Z,0.79
2023-01-19T11:04:37.381Z,1.25
2023-01-19T11:07:14.085Z,1.27
2023-01-19T11:09:40.856Z,1.39
2023-01-19T11:12:17.018Z,1.52
2023-01-19T11:14:43.743Z,1.17
2023-01-19T11:17:20.821Z,1.44
2023-01-19T11:19:59.715Z,1.71
2023-01-19T11:22:29.943Z,3.33
2023-01-19T11:25:02.230Z,2.86
2023-01-19T11:27:31.151Z,3.88
2023-01-19T11:30:21.577Z,3.55
2023-01-19T11:32:49.231Z,4.30
2023-01-19T11:35:40.113Z,3.19
2023-01-19T11:38:27.369Z,4.67
2023-01-19T11:40:58.699Z,4.19
2023-01-19T11:43:43.381Z,4.16
2023-01-19T11:46:15.448Z,4.25
2023-01-19T11:49:03.233Z,3.41
2023-01-19T11:51:39.683Z,3.18
2023-01-19T11:54:19.331Z,3.73
2023-01-19T11:56:48.829Z,4.29
2023-01-19T11:59:15.354Z,4.47
2023-01-19T12:01:51.610Z,4.93
2023-01-19T12:04:27.891Z,4.04
2023-01-19T12:06:56.690Z,4.91
2023-01-19T12:09:46.281Z,4.54
2023-01-19T12:12:40.109Z,5.17
2023-01-19T12:15:17.549Z,4.66
2023-01-19T12:17:49.342Z,5.10
2023-01-19T12:20:44.827Z,4.07
2023-01-19T12:23:11.428Z,4.14
2023-01-19T12:25:53.909Z,3.24
2023-01-19T12:28:26.962Z,3.22
2023-01-19T12:30:54.055Z,3.33
2023-01-19T12:33:26.761Z,2.68
2023-01-19T12:35:53.743Z,2.77
2023-01-19T12:38:24.731Z,2.37
2023-01-19T12:41:05.547Z,2.05
2023-01-19T12:43:31.988Z,2.05
2023-01-19T12:45:58.579Z,2.43
2023-01-19T12:48:27.464Z,2.36
2023-01-19T12:50:54.023Z,2.18
2023-01-19T12:53:22.642Z,2.29
2023-01-19T12:56:00.102Z,2.36
2023-01-19T12:58:27.277Z,2.08
2023-01-19T13:01:16.297Z,2.37
2023-01-19T13:04:00.025Z,1.95
2023-01-19T13:06:48.633Z,2.15
2023-01-19T13:09:32.347Z,2.01
2023-01-19T13:12:14.128Z,2.20
2023-01-19T13:14:43.481Z,1.95
2023-01-19T13:17:38.729Z,2.29
2023-01-19T13:20:22.713Z,1.98
2023-01-19T13:22:51.092Z,2.26
2023-01-19T13:25:34.252Z,2.09
2023-01-19T13:28:02.129Z,1.94
2023-01-19T13:30:30.039Z,1.57
2023-01-19T13:33:15.413Z,1.80
2023-01-19T13:35:51.389Z,1.66
2023-01-19T13:38:18.183Z,1.91
2023-01-19T13:40:45.844Z,1.86
2023-01-19T13:43:21.040Z,1.68
2023-01-19T13:45:53.363Z,1.61
2023-01-19T13:48:22.407Z,1.48
2023-01-19T13:50:57.928Z,1.47
2023-01-19T13:53:24.389Z,1.35
2023-01-19T13:56:10.418Z,1.49
2023-01-19T13:58:37.093Z,1.68
2023-01-19T14:01:03.582Z,1.53
2023-01-19T14:03:30.153Z,1.60
2023-01-19T14:05:56.966Z,1.50
2023-01-19T14:08:25.781Z,1.30
2023-01-19T14:10:52.279Z,1.42
2023-01-19T14:13:21.208Z,1.36
2023-01-19T14:15:49.972Z,1.21
2023-01-19T14:18:16.442Z,1.15
2023-01-19T14:21:09.720Z,1.53
2023-01-19T14:23:48.566Z,1.41
2023-01-19T14:26:51.393Z,1.50
2023-01-19T14:29:40.262Z,1.27
2023-01-19T14:32:13.900Z,1.26
2023-01-19T14:34:43.598Z,1.01
2023-01-19T14:37:16.138Z,1.03
2023-01-19T14:40:04.745Z,1.12
2023-01-19T14:42:35.766Z,1.04
2023-01-19T14:45:07.820Z,1.03
2023-01-19T14:47:40.806Z,0.83
2023-01-19T14:50:26.807Z,0.96
2023-01-19T14:53:04.061Z,0.90
2023-01-19T14:55:47.522Z,0.92
2023-01-19T14:58:16.634Z,0.84
2023-01-19T15:00:44.180Z,0.78
2023-01-19T15:03:10.752Z,1.00
2023-01-19T15:05:42.602Z,1.04
2023-01-19T15:08:25.461Z,0.90
2023-01-19T15:10:53.230Z,1.01
2023-01-19T15:13:22.848Z,0.79
2023-01-19T15:15:50.247Z,0.88
2023-01-19T15:18:20.978Z,0.72
2023-01-19T15:20:47.603Z,0.71
2023-01-19T15:23:13.945Z,0.81
2023-01-19T15:25:40.764Z,0.78
2023-01-19T15:28:13.033Z,0.81
2023-01-19T15:30:39.881Z,0.64
2023-01-19T15:33:06.640Z,0.75
2023-01-19T15:35:33.174Z,0.75
2023-01-19T15:38:00.020Z,0.76
2023-01-19T15:40:26.560Z,0.74
2023-01-19T15:42:53.057Z,0.79
2023-01-19T15:45:38.491Z,0.82
2023-01-19T15:48:07.735Z,0.85
2023-01-19T15:50:37.959Z,0.81
2023-01-19T15:53:04.925Z,0.75
2023-01-19T15:55:31.438Z,0.67
2023-01-19T15:58:02.215Z,0.76
2023-01-19T16:00:30.562Z,0.70
2023-01-19T16:02:57.606Z,0.70
2023-01-19T16:05:37.468Z,0.62
2023-01-19T16:08:08.752Z,0.69
2023-01-19T16:10:35.585Z,0.69
2023-01-19T16:13:03.436Z,0.57
2023-01-19T16:15:29.936Z,0.62
2023-01-19T16:17:56.459Z,0.65
2023-01-19T16:20:22.972Z,0.66
2023-01-19T16:22:49.496Z,0.65
2023-01-19T16:25:16.073Z,0.69
2023-01-19T16:27:42.760Z,0.70
2023-01-19T16:30:12.051Z,0.74
2023-01-19T16:32:39.041Z,0.71
2023-01-19T16:35:06.072Z,0.74
2023-01-19T16:37:32.660Z,0.70
2023-01-19T16:39:59.339Z,0.70
2023-01-19T16:42:25.929Z,0.74
2023-01-19T16:44:52.547Z,0.76
2023-01-19T16:47:19.039Z,0.76
2023-01-19T16:49:45.498Z,0.74
2023-01-19T16:52:11.888Z,0.66
2023-01-19T16:54:43.985Z,0.67
2023-01-19T16:57:11.163Z,0.71
2023-01-19T16:59:39.897Z,0.78
2023-01-19T17:02:10.328Z,0.76
2023-01-19T17:04:36.950Z,0.72
2023-01-19T17:07:03.480Z,0.66
2023-01-19T17:09:30.204Z,0.66
2023-01-19T17:11:58.317Z,0.68
2023-01-19T17:14:24.790Z,0.64
2023-01-19T17:16:51.371Z,0.69
2023-01-19T17:19:19.999Z,0.65
2023-01-19T17:21:49.012Z,0.65
2023-01-19T17:24:16.936Z,0.75
2023-01-19T17:26:45.807Z,0.76
2023-01-19T17:29:12.420Z,0.82
2023-01-19T17:31:39.022Z,0.81
2023-01-19T17:34:05.880Z,0.83
2023-01-19T17:36:33.688Z,0.70
2023-01-19T17:39:04.130Z,0.75
2023-01-19T17:41:32.510Z,0.79
2023-01-19T17:44:04.253Z,0.79
2023-01-19T17:46:31.661Z,0.79
2023-01-19T17:49:01.894Z,0.73
2023-01-19T17:51:29.613Z,0.79
2023-01-19T17:53:56.789Z,0.68
2023-01-19T17:56:28.420Z,0.70
2023-01-19T17:58:56.004Z,0.83
2023-01-19T18:01:27.952Z,0.71
2023-01-19T18:03:54.700Z,0.79
2023-01-19T18:06:22.008Z,0.83
2023-01-19T18:08:49.656Z,0.79
2023-01-19T18:11:18.420Z,0.62
2023-01-19T18:13:46.757Z,0.70
2023-01-19T18:16:16.803Z,0.68
2023-01-19T18:18:44.586Z,0.66
2023-01-19T18:21:14.019Z,0.71
2023-01-19T18:23:43.448Z,0.72
2023-01-19T18:26:21.363Z,0.80
2023-01-19T18:28:49.018Z,0.76
2023-01-19T18:31:17.959Z,0.80
2023-01-19T18:33:45.011Z,0.80
2023-01-19T18:36:11.844Z,0.80
2023-01-19T18:38:38.717Z,0.62
2023-01-19T18:41:07.670Z,0.72
2023-01-19T18:43:34.798Z,0.71
2023-01-19T18:46:01.643Z,0.62
2023-01-19T18:48:28.754Z,0.63
2023-01-19T18:50:55.732Z,0.61
2023-01-19T18:53:22.879Z,0.68
2023-01-19T18:55:54.391Z,0.60
2023-01-19T18:58:21.721Z,0.65
2023-01-19T19:00:49.238Z,0.54
2023-01-19T19:03:16.786Z,0.38
2023-01-19T19:05:43.419Z,0.38
2023-01-19T19:08:10.073Z,0.45
2023-01-19T19:10:36.660Z,0.52
2023-01-19T19:13:03.130Z,0.51
2023-01-19T19:15:29.607Z,0.42
2023-01-19T19:17:56.217Z,0.52
2023-01-19T19:20:23.522Z,0.56
2023-01-19T19:22:51.798Z,0.53
2023-01-19T19:25:18.590Z,0.52
2023-01-19T19:27:47.869Z,0.51
2023-01-19T19:30:15.054Z,0.51
2023-01-19T19:32:41.650Z,0.47
2023-01-19T19:35:08.512Z,0.46
2023-01-19T19:37:35.070Z,0.54
2023-01-19T19:40:01.627Z,0.54
2023-01-19T19:42:30.036Z,0.54
2023-01-19T19:44:56.685Z,0.45
2023-01-19T19:47:24.557Z,0.49
2023-01-19T19:49:51.132Z,0.48
2023-01-19T19:52:17.711Z,0.56
2023-01-19T19:54:45.201Z,0.53
2023-01-19T19:57:11.525Z,0.41
2023-01-19T19:59:38.053Z,0.42
2023-01-19T20:02:04.448Z,0.42
2023-01-19T20:04:31.056Z,0.51
2023-01-19T20:06:59.259Z,0.43
2023-01-19T20:09:25.905Z,0.54
2023-01-19T20:11:52.820Z,0.40
2023-01-19T20:14:19.406Z,0.41
2023-01-19T20:16:45.884Z,0.48
2023-01-19T20:19:12.448Z,0.43
2023-01-19T20:21:44.170Z,0.50
2023-01-19T20:24:18.116Z,0.53
2023-01-19T20:26:53.018Z,0.41
2023-01-19T20:29:20.635Z,0.46
2023-01-19T20:31:53.316Z,0.46
2023-01-19T20:34:22.547Z,0.40
2023-01-19T20:36:51.285Z,0.48
2023-01-19T20:39:18.921Z,0.44
2023-01-19T20:41:45.807Z,0.48
2023-01-19T20:44:15.173Z,0.37
2023-01-19T20:46:42.582Z,0.53
2023-01-19T20:49:08.976Z,0.50
2023-01-19T20:51:37.434Z,0.50
2023-01-19T20:54:04.548Z,0.53
2023-01-19T20:56:31.124Z,0.51
2023-01-19T20:58:58.890Z,0.40
2023-01-19T21:01:26.266Z,0.39
2023-01-19T21:03:52.934Z,0.31
2023-01-19T21:06:21.038Z,0.41
2023-01-19T21:08:49.727Z,0.38
2023-01-19T21:11:19.592Z,0.44
2023-01-19T21:13:47.068Z,0.38
2023-01-19T21:16:13.909Z,0.33
2023-01-19T21:18:40.416Z,0.44
2023-01-19T21:21:10.674Z,0.42
2023-01-19T21:23:42.080Z,0.36
2023-01-19T21:26:08.680Z,0.35
2023-01-19T21:28:35.202Z,0.28
2023-01-19T21:31:08.675Z,0.27
2023-01-19T21:33:35.299Z,0.34
2023-01-19T21:36:01.783Z,0.41
2023-01-19T21:38:29.599Z,0.29
2023-01-19T21:40:57.442Z,0.45
2023-01-19T21:43:25.493Z,0.49
2023-01-19T21:45:54.828Z,0.47
2023-01-19T21:48:21.377Z,0.52
2023-01-19T21:50:56.403Z,0.55
2023-01-19T21:53:22.917Z,0.56
2023-01-19T21:55:49.430Z,0.48
2023-01-19T21:58:15.959Z,0.49
2023-01-19T22:00:42.462Z,0.54
2023-01-19T22:03:09.019Z,0.53
2023-01-19T22:05:37.033Z,0.54
2023-01-19T22:08:05.078Z,0.55
2023-01-19T22:10:31.967Z,0.51
2023-01-19T22:12:58.558Z,0.52
2023-01-19T22:15:24.900Z,0.51
2023-01-19T22:17:51.264Z,0.50
2023-01-19T22:20:17.642Z,0.51
2023-01-19T22:22:44.186Z,0.51
2023-01-19T22:25:11.019Z,0.50
2023-01-19T22:27:38.859Z,0.35
2023-01-19T22:30:05.996Z,0.30
2023-01-19T22:32:32.613Z,0.30
2023-01-19T22:34:59.180Z,0.35
2023-01-19T22:37:25.763Z,0.42
2023-01-19T22:39:53.512Z,0.43
2023-01-19T22:42:19.902Z,0.40
2023-01-19T22:44:46.985Z,0.42
2023-01-19T22:47:13.502Z,0.35
2023-01-19T22:49:40.844Z,0.39
2023-01-19T22:52:07.269Z,0.33
2023-01-19T22:54:34.181Z,0.34
2023-01-19T22:57:00.920Z,0.34
2023-01-19T22:59:27.560Z,0.33
2023-01-19T23:01:53.997Z,0.30
2023-01-19T23:04:20.624Z,0.30
2023-01-19T23:06:50.532Z,0.35
2023-01-19T23:09:17.836Z,0.37
2023-01-19T23:11:50.084Z,0.28
2023-01-19T23:14:19.490Z,0.10
2023-01-19T23:16:47.318Z,0.16
2023-01-19T23:19:14.916Z,0.21
2023-01-19T23:21:41.822Z,0.13
2023-01-19T23:24:08.790Z,0.18
2023-01-19T23:26:38.363Z,0.15
2023-01-19T23:29:07.731Z,0.10
2023-01-19T23:31:36.237Z,0.15
2023-01-19T23:34:05.723Z,0.15
2023-01-19T23:36:33.577Z,0.12
2023-01-19T23:39:06.758Z,0.11
2023-01-19T23:41:37.005Z,0.01
2023-01-19T23:44:03.820Z,0.09
2023-01-19T23:46:30.611Z,0.17
2023-01-19T23:49:00.280Z,0.21
2023-01-19T23:51:29.344Z,0.15
2023-01-19T23:53:57.747Z,0.17
2023-01-19T23:56:27.125Z,0.25
2023-01-19T23:58:56.847Z,0.25
